Costa Luminosa — ICGU — position and weather

sailwx.info

Track history (hours):
 
Tides and Currents Weather Stations Pressure Air Temp Water Temp Dewpoint Dewpoint Depression Visibility Wind Speed Wind Dir Waves Ship Positions

Costa Luminosa

Last reported at 2016-Sep-19 19:23 UTC. Time now 2016-Sep-27 08:49 UTC.
Position N 09°01' W 079°37'.

Length 294 m; draft 8.3 m.

Type: Passenger vessel. MMSI: 247257900.

Date/timePositionNaut miles runAvg speedWind from/ knotsBaromVisibWave heightAir tempDewpointWater temp
2016-Sep-19 19:23N 09°01' W 079°37'1 0.7
2016-Sep-19 18:28N 09°01' W 079°37'10 4.9
2016-Sep-19 16:27N 09°07' W 079°45'13 7.0
2016-Sep-19 14:33N 09°16' W 079°55'1 0.6
2016-Sep-19 13:33N 09°17' W 079°55'0 0.4
2016-Sep-19 12:32N 09°17' W 079°55'4 4.4
2016-Sep-19 11:33N 09°21' W 079°55'12 6.2
2016-Sep-19 09:33N 09°33' W 079°52'14 7.1
2016-Sep-19 07:33N 09°47' W 079°47'7 6.6
2016-Sep-19 06:33N 09°53' W 079°45'18 5.6
2016-Sep-19 03:23N 09°57' W 079°27'7 7.4
2016-Sep-19 02:30N 09°56' W 079°21'  
Track history (hours):
 
Tides and Currents Weather Stations Pressure Air Temp Water Temp Dewpoint Dewpoint Depression Visibility Wind Speed Wind Dir Waves Ship Positions

Costa Luminosa

Last reported at 2016-Sep-19 19:23 UTC. Time now 2016-Sep-27 08:49 UTC.
Position N 09°01' W 079°37'.

Length 294 m; draft 8.3 m.

Type: Passenger vessel. MMSI: 247257900.

Date/timePositionNaut miles runAvg speedWind from/ knotsBaromVisibWave heightAir tempDewpointWater temp
2016-Sep-19 19:23N 09°01' W 079°37'1 0.7
2016-Sep-19 18:28N 09°01' W 079°37'10 4.9
2016-Sep-19 16:27N 09°07' W 079°45'13 7.0
2016-Sep-19 14:33N 09°16' W 079°55'1 0.6
2016-Sep-19 13:33N 09°17' W 079°55'0 0.4
2016-Sep-19 12:32N 09°17' W 079°55'4 4.4
2016-Sep-19 11:33N 09°21' W 079°55'12 6.2
2016-Sep-19 09:33N 09°33' W 079°52'14 7.1
2016-Sep-19 07:33N 09°47' W 079°47'7 6.6
2016-Sep-19 06:33N 09°53' W 079°45'18 5.6
2016-Sep-19 03:23N 09°57' W 079°27'7 7.4
2016-Sep-19 02:30N 09°56' W 079°21'  

Dump ship's entire track history